Time;durP1;ratioP1;P1;durP2;ratioP2;P2;SDS_P1;SDS_P2;PMS_P1;PMS_P2;Temp;Humidity;BMP_temperature;BMP_pressure;BME280_temperature;BME280_humidity;BME280_pressure;Samples;Min_cycle;Max_cycle;Signal;HPM_P1;HPM_P2
2023/12/12 00:00:45;;;;;;;11.55;4.40;;;;;;;;;;4971082;28;99983;-72
2023/12/12 00:03:12;;;;;;;14.73;3.78;;;;;;;;;;4969084;28;98218;-72
2023/12/12 00:05:38;;;;;;;8.48;3.75;;;;;;;;;;4975459;28;99605;-71
2023/12/12 00:08:05;;;;;;;10.13;3.90;;;;;;;;;;4971253;28;98494;-72
2023/12/12 00:10:31;;;;;;;12.82;3.47;;;;;;;;;;4970405;28;99364;-72
2023/12/12 00:12:58;;;;;;;11.13;3.83;;;;;;;;;;4971955;28;99941;-72
2023/12/12 00:15:25;;;;;;;8.02;3.33;;;;;;;;;;4969141;28;98855;-71
2023/12/12 00:17:51;;;;;;;5.85;2.63;;;;;;;;;;4968817;28;99457;-72
2023/12/12 00:20:18;;;;;;;8.45;3.17;;;;;;;;;;4970919;28;100532;-71
2023/12/12 00:22:44;;;;;;;17.67;3.90;;;;;;;;;;4972003;28;98187;-71
2023/12/12 00:25:10;;;;;;;9.77;3.55;;;;;;;;;;4970407;28;99911;-72
2023/12/12 00:27:37;;;;;;;7.55;4.10;;;;;;;;;;4966839;28;98565;-71
2023/12/12 00:30:04;;;;;;;7.88;3.85;;;;;;;;;;4966879;28;99622;-72
2023/12/12 00:32:30;;;;;;;9.98;3.97;;;;;;;;;;4969691;28;100048;-72
2023/12/12 00:34:57;;;;;;;8.90;4.18;;;;;;;;;;4970380;28;98430;-73
2023/12/12 00:37:23;;;;;;;8.23;4.00;;;;;;;;;;4969474;28;99481;-73
2023/12/12 00:39:49;;;;;;;11.30;4.47;;;;;;;;;;4969675;28;99986;-71
2023/12/12 00:42:16;;;;;;;14.15;5.03;;;;;;;;;;4970319;28;98251;-71
2023/12/12 00:44:42;;;;;;;11.93;4.40;;;;;;;;;;4970256;28;98577;-71
2023/12/12 00:47:09;;;;;;;17.13;5.60;;;;;;;;;;4978113;28;100530;-71
2023/12/12 00:49:35;;;;;;;8.48;4.20;;;;;;;;;;4969976;28;99381;-72
2023/12/12 00:52:02;;;;;;;9.80;3.90;;;;;;;;;;4967507;28;99952;-72
2023/12/12 00:54:29;;;;;;;5.88;4.15;;;;;;;;;;4985388;28;98260;-71
2023/12/12 00:56:55;;;;;;;14.07;3.95;;;;;;;;;;4988972;28;98626;-72
2023/12/12 00:59:21;;;;;;;10.93;4.15;;;;;;;;;;4969310;28;99954;-71
2023/12/12 01:01:48;;;;;;;6.85;3.95;;;;;;;;;;4968592;28;98235;-72
2023/12/12 01:04:14;;;;;;;18.92;3.75;;;;;;;;;;4968761;28;98570;-73
2023/12/12 01:06:41;;;;;;;7.85;3.72;;;;;;;;;;4969066;28;99097;-72
2023/12/12 01:09:07;;;;;;;9.35;3.63;;;;;;;;;;4971809;28;98046;-73
2023/12/12 01:11:34;;;;;;;4.85;3.10;;;;;;;;;;4966854;28;99538;-71
2023/12/12 01:14:00;;;;;;;5.65;3.42;;;;;;;;;;4967581;28;98211;-72
2023/12/12 01:16:27;;;;;;;10.40;3.28;;;;;;;;;;4967446;28;98705;-71
2023/12/12 01:18:56;;;;;;;11.32;3.40;;;;;;;;;;4968134;28;100002;-71
2023/12/12 01:21:22;;;;;;;7.35;2.63;;;;;;;;;;4969665;28;98294;-71
2023/12/12 01:23:52;;;;;;;12.05;4.13;;;;;;;;;;4967166;28;99573;-72
2023/12/12 01:26:19;;;;;;;6.75;3.05;;;;;;;;;;4968341;28;100845;-72
2023/12/12 01:28:46;;;;;;;9.35;3.47;;;;;;;;;;4969326;28;99100;-72
2023/12/12 01:31:14;;;;;;;11.27;4.00;;;;;;;;;;4972874;28;99351;-72
2023/12/12 01:33:41;;;;;;;14.13;3.20;;;;;;;;;;4969622;28;98321;-72
2023/12/12 01:36:08;;;;;;;5.95;3.40;;;;;;;;;;4969613;28;99612;-72
2023/12/12 01:38:35;;;;;;;7.43;2.92;;;;;;;;;;4968025;28;99311;-71
2023/12/12 01:41:01;;;;;;;4.32;2.55;;;;;;;;;;4968171;28;99247;-72
2023/12/12 01:43:28;;;;;;;8.70;3.35;;;;;;;;;;4965394;28;99622;-72
2023/12/12 01:45:57;;;;;;;15.38;4.63;;;;;;;;;;4968698;28;100094;-72
2023/12/12 01:48:23;;;;;;;13.73;3.25;;;;;;;;;;4965729;28;98407;-72
2023/12/12 01:50:50;;;;;;;12.98;3.53;;;;;;;;;;4969045;28;99693;-71
2023/12/12 01:53:21;;;;;;;8.85;3.53;;;;;;;;;;4969985;28;99116;-72
2023/12/12 01:55:48;;;;;;;18.58;2.78;;;;;;;;;;4970144;28;100094;-72
2023/12/12 01:58:15;;;;;;;6.90;3.33;;;;;;;;;;4968408;28;100408;-72
2023/12/12 02:00:41;;;;;;;6.22;3.28;;;;;;;;;;4968168;28;98656;-72
2023/12/12 02:03:08;;;;;;;13.85;3.70;;;;;;;;;;4969039;28;99370;-72
2023/12/12 02:05:36;;;;;;;4.25;3.17;;;;;;;;;;4968005;28;99946;-72
2023/12/12 02:08:03;;;;;;;6.40;3.63;;;;;;;;;;4968898;28;98513;-72
2023/12/12 02:10:29;;;;;;;8.10;2.92;;;;;;;;;;4968502;28;98480;-73
2023/12/12 02:12:56;;;;;;;7.97;4.20;;;;;;;;;;4988053;28;99948;-72
2023/12/12 02:15:23;;;;;;;8.45;3.17;;;;;;;;;;4986002;28;98376;-71
2023/12/12 02:17:49;;;;;;;11.32;3.53;;;;;;;;;;4968063;28;100014;-72
2023/12/12 02:20:16;;;;;;;9.00;3.95;;;;;;;;;;4967730;28;98224;-71
2023/12/12 02:22:44;;;;;;;10.73;4.28;;;;;;;;;;4968816;28;99340;-71
2023/12/12 02:25:10;;;;;;;10.30;3.55;;;;;;;;;;4967678;28;99151;-72
2023/12/12 02:27:37;;;;;;;7.70;4.03;;;;;;;;;;4968362;28;98311;-71
2023/12/12 02:30:07;;;;;;;10.38;4.07;;;;;;;;;;4967823;28;99252;-72
2023/12/12 02:32:34;;;;;;;9.68;4.00;;;;;;;;;;4966833;28;99991;-71
2023/12/12 02:35:00;;;;;;;5.28;4.05;;;;;;;;;;4973062;28;98213;-71
2023/12/12 02:37:27;;;;;;;8.90;4.40;;;;;;;;;;4967603;28;99190;-71
2023/12/12 02:39:54;;;;;;;11.93;4.07;;;;;;;;;;4968202;28;99938;-71
2023/12/12 02:42:20;;;;;;;13.18;4.95;;;;;;;;;;4967448;28;98656;-70
2023/12/12 02:44:47;;;;;;;6.85;4.32;;;;;;;;;;4966505;28;99876;-71
2023/12/12 02:47:13;;;;;;;15.55;4.63;;;;;;;;;;4969333;28;99006;-71
2023/12/12 02:49:39;;;;;;;9.75;5.10;;;;;;;;;;4968765;28;99136;-70
2023/12/12 02:52:06;;;;;;;20.05;4.95;;;;;;;;;;4965576;28;99870;-71
2023/12/12 02:54:33;;;;;;;10.13;5.75;;;;;;;;;;4965341;28;98386;-70
2023/12/12 02:57:00;;;;;;;7.82;5.70;;;;;;;;;;4968323;28;98673;-71
2023/12/12 02:59:26;;;;;;;13.27;5.60;;;;;;;;;;4967174;28;98287;-71
2023/12/12 03:01:53;;;;;;;11.13;5.32;;;;;;;;;;4968816;28;99359;-71
2023/12/12 03:04:19;;;;;;;14.35;6.35;;;;;;;;;;4967137;28;99963;-72
2023/12/12 03:06:46;;;;;;;13.32;5.55;;;;;;;;;;4967410;28;98939;-72
2023/12/12 03:09:12;;;;;;;9.65;5.93;;;;;;;;;;4967444;28;99407;-71
2023/12/12 03:11:39;;;;;;;9.77;5.38;;;;;;;;;;4966092;28;100296;-71
2023/12/12 03:14:05;;;;;;;18.98;6.40;;;;;;;;;;4967466;28;99036;-72
2023/12/12 03:16:32;;;;;;;7.63;5.85;;;;;;;;;;4966664;28;99290;-72
2023/12/12 03:18:58;;;;;;;8.18;5.85;;;;;;;;;;4971265;28;100206;-73
2023/12/12 03:21:25;;;;;;;14.90;6.40;;;;;;;;;;4972957;28;98338;-72
2023/12/12 03:23:51;;;;;;;9.98;6.22;;;;;;;;;;4964530;28;99508;-72
2023/12/12 03:26:17;;;;;;;9.15;6.18;;;;;;;;;;4966004;28;98825;-73
2023/12/12 03:28:44;;;;;;;16.75;7.82;;;;;;;;;;4966420;28;99597;-72
2023/12/12 03:31:10;;;;;;;13.75;6.55;;;;;;;;;;4966662;28;99894;-72
2023/12/12 03:33:37;;;;;;;14.30;6.78;;;;;;;;;;4964790;28;98366;-72
2023/12/12 03:36:07;;;;;;;14.20;7.70;;;;;;;;;;4967639;28;99753;-72
2023/12/12 03:38:33;;;;;;;11.07;8.05;;;;;;;;;;4967262;28;100920;-72
2023/12/12 03:41:00;;;;;;;14.85;7.53;;;;;;;;;;4969009;28;99040;-71
2023/12/12 03:43:27;;;;;;;12.43;7.72;;;;;;;;;;4965206;28;100929;-71
2023/12/12 03:45:53;;;;;;;17.20;8.13;;;;;;;;;;4965805;28;99368;-71
2023/12/12 03:48:20;;;;;;;15.35;8.52;;;;;;;;;;4963473;28;99446;-73
2023/12/12 03:50:49;;;;;;;14.95;8.25;;;;;;;;;;4963938;28;100176;-71
2023/12/12 03:53:16;;;;;;;15.30;7.95;;;;;;;;;;4967462;28;98732;-72
2023/12/12 03:55:42;;;;;;;18.90;8.15;;;;;;;;;;4966235;28;98449;-71
2023/12/12 03:58:09;;;;;;;15.68;7.50;;;;;;;;;;4963531;28;100097;-72
2023/12/12 04:00:35;;;;;;;20.20;9.25;;;;;;;;;;4964271;28;99768;-72
2023/12/12 04:03:02;;;;;;;15.00;9.13;;;;;;;;;;4965232;28;99711;-71
2023/12/12 04:05:28;;;;;;;23.50;9.25;;;;;;;;;;4967877;28;99532;-71
2023/12/12 04:07:55;;;;;;;22.63;10.00;;;;;;;;;;4964321;28;99748;-72
2023/12/12 04:10:21;;;;;;;18.00;9.27;;;;;;;;;;4972404;28;99394;-72
2023/12/12 04:12:48;;;;;;;21.45;11.63;;;;;;;;;;4965117;28;99353;-71
2023/12/12 04:15:15;;;;;;;17.25;10.80;;;;;;;;;;4969047;28;99630;-71
2023/12/12 04:17:42;;;;;;;19.73;11.35;;;;;;;;;;4969342;28;100415;-71
2023/12/12 04:20:09;;;;;;;28.27;11.98;;;;;;;;;;4966057;28;99600;-71
2023/12/12 04:22:35;;;;;;;29.60;12.75;;;;;;;;;;4967081;28;99339;-71
2023/12/12 04:25:02;;;;;;;37.08;12.38;;;;;;;;;;4973018;28;98117;-72
2023/12/12 04:27:29;;;;;;;27.38;12.48;;;;;;;;;;4971931;28;100128;-74
2023/12/12 04:29:56;;;;;;;26.05;11.90;;;;;;;;;;4971214;27;99034;-72
2023/12/12 04:32:22;;;;;;;25.08;12.80;;;;;;;;;;4969582;28;98258;-72
2023/12/12 04:34:49;;;;;;;22.40;11.52;;;;;;;;;;4969229;28;99424;-72
2023/12/12 04:37:16;;;;;;;23.77;12.02;;;;;;;;;;4968888;28;99836;-72
2023/12/12 04:39:43;;;;;;;26.30;11.95;;;;;;;;;;4969517;28;99477;-72
2023/12/12 04:42:11;;;;;;;34.40;12.75;;;;;;;;;;4968521;28;99528;-72
2023/12/12 04:44:40;;;;;;;28.35;12.98;;;;;;;;;;4973347;28;99079;-72
2023/12/12 04:47:06;;;;;;;27.45;14.35;;;;;;;;;;4968568;28;99275;-72
2023/12/12 04:49:33;;;;;;;31.10;13.52;;;;;;;;;;4966946;28;100202;-72
2023/12/12 04:51:59;;;;;;;32.10;13.02;;;;;;;;;;4970853;28;98606;-72
2023/12/12 04:54:26;;;;;;;25.88;13.90;;;;;;;;;;4966068;28;99641;-72
2023/12/12 04:56:52;;;;;;;29.73;14.18;;;;;;;;;;4966776;28;99954;-72
2023/12/12 04:59:19;;;;;;;34.35;13.32;;;;;;;;;;4967865;28;98836;-73
2023/12/12 05:01:45;;;;;;;28.08;14.15;;;;;;;;;;4968510;28;98613;-72
2023/12/12 05:04:12;;;;;;;39.35;13.43;;;;;;;;;;4967175;28;99268;-71
2023/12/12 05:06:38;;;;;;;31.63;14.50;;;;;;;;;;4972635;28;99190;-72
2023/12/12 05:09:05;;;;;;;26.20;13.35;;;;;;;;;;4968011;28;100149;-70
2023/12/12 05:11:31;;;;;;;23.55;11.95;;;;;;;;;;4968653;28;98883;-71
2023/12/12 05:13:58;;;;;;;36.13;13.82;;;;;;;;;;4969458;28;100016;-72
2023/12/12 05:16:24;;;;;;;19.88;13.35;;;;;;;;;;4967418;28;99481;-71
2023/12/12 05:18:57;;;;;;;27.25;12.65;;;;;;;;;;4964743;28;99067;-72
2023/12/12 05:21:28;;;;;;;27.00;13.02;;;;;;;;;;4967301;28;99636;-72
2023/12/12 05:23:54;;;;;;;25.42;13.30;;;;;;;;;;4969228;28;100313;-72
2023/12/12 05:26:20;;;;;;;31.70;12.70;;;;;;;;;;4964866;28;98241;-72
2023/12/12 05:28:47;;;;;;;27.10;13.05;;;;;;;;;;4968672;28;99443;-72
2023/12/12 05:31:14;;;;;;;26.65;12.73;;;;;;;;;;4967211;28;99313;-73
2023/12/12 05:33:40;;;;;;;25.52;12.50;;;;;;;;;;4968448;28;99306;-71
2023/12/12 05:36:07;;;;;;;23.15;13.02;;;;;;;;;;4969088;28;99926;-71
2023/12/12 05:38:34;;;;;;;30.70;12.52;;;;;;;;;;4967222;28;98681;-72
2023/12/12 05:41:05;;;;;;;37.90;14.88;;;;;;;;;;4969357;28;99376;-73
2023/12/12 05:43:32;;;;;;;24.85;13.00;;;;;;;;;;4965677;28;99657;-72
2023/12/12 05:45:59;;;;;;;29.05;12.95;;;;;;;;;;4972423;28;98819;-72
2023/12/12 05:48:26;;;;;;;26.15;14.18;;;;;;;;;;4965023;28;99442;-73
2023/12/12 05:50:52;;;;;;;39.63;17.17;;;;;;;;;;4967204;28;100057;-71
2023/12/12 05:53:18;;;;;;;34.85;15.57;;;;;;;;;;4976989;28;99339;-72
2023/12/12 05:55:45;;;;;;;25.42;16.23;;;;;;;;;;4970920;28;99450;-72
2023/12/12 05:58:11;;;;;;;19.80;14.13;;;;;;;;;;4968266;28;98265;-72
2023/12/12 06:00:39;;;;;;;28.15;13.75;;;;;;;;;;4966530;28;99793;-72
2023/12/12 06:03:06;;;;;;;34.03;14.15;;;;;;;;;;4965718;28;99985;-72
2023/12/12 06:05:32;;;;;;;35.40;14.15;;;;;;;;;;4969102;28;98279;-71
2023/12/12 06:07:59;;;;;;;33.67;15.00;;;;;;;;;;4969253;28;98632;-72
2023/12/12 06:10:27;;;;;;;24.85;14.68;;;;;;;;;;4967557;28;100057;-71
2023/12/12 06:12:55;;;;;;;40.28;14.82;;;;;;;;;;4969327;28;98357;-71
2023/12/12 06:15:21;;;;;;;29.70;14.48;;;;;;;;;;4966086;28;100014;-71
2023/12/12 06:17:48;;;;;;;31.45;15.18;;;;;;;;;;4967178;27;99114;-72
2023/12/12 06:20:14;;;;;;;28.35;15.68;;;;;;;;;;4969590;28;99199;-71
2023/12/12 06:22:41;;;;;;;29.08;15.10;;;;;;;;;;4967706;28;98858;-71
2023/12/12 06:25:08;;;;;;;28.77;14.18;;;;;;;;;;4967858;28;100162;-72
2023/12/12 06:27:35;;;;;;;42.13;15.30;;;;;;;;;;4970586;28;99434;-72
2023/12/12 06:30:01;;;;;;;29.10;15.38;;;;;;;;;;4966231;28;99861;-72
2023/12/12 06:32:28;;;;;;;55.45;15.25;;;;;;;;;;4970501;28;98322;-72
2023/12/12 06:34:55;;;;;;;34.80;15.65;;;;;;;;;;4963575;28;99240;-71
2023/12/12 06:37:21;;;;;;;52.67;15.70;;;;;;;;;;4967464;28;98301;-72
2023/12/12 06:39:48;;;;;;;39.75;14.90;;;;;;;;;;4967695;28;99769;-71
2023/12/12 06:42:14;;;;;;;38.95;16.17;;;;;;;;;;4966670;28;100033;-72
2023/12/12 06:44:41;;;;;;;50.03;17.25;;;;;;;;;;4966477;28;98400;-72
2023/12/12 06:47:07;;;;;;;50.30;14.90;;;;;;;;;;4967880;28;98749;-72
2023/12/12 06:49:33;;;;;;;55.63;15.80;;;;;;;;;;4970370;28;99356;-73
2023/12/12 06:52:01;;;;;;;44.78;15.57;;;;;;;;;;4968839;28;98388;-72
2023/12/12 06:54:28;;;;;;;48.45;14.23;;;;;;;;;;4967193;28;99567;-71
2023/12/12 06:56:55;;;;;;;63.05;16.27;;;;;;;;;;4964778;28;99709;-74
2023/12/12 06:59:21;;;;;;;43.47;13.73;;;;;;;;;;4968026;28;99775;-72
2023/12/12 07:01:48;;;;;;;65.97;15.27;;;;;;;;;;4973606;28;99939;-72
2023/12/12 07:04:14;;;;;;;38.40;14.85;;;;;;;;;;4987641;28;98245;-73
2023/12/12 07:06:41;;;;;;;45.45;14.30;;;;;;;;;;4989452;28;98647;-72
2023/12/12 07:09:10;;;;;;;47.58;14.90;;;;;;;;;;4989126;28;99099;-72
2023/12/12 07:11:37;;;;;;;45.15;14.10;;;;;;;;;;4988126;28;98476;-72
2023/12/12 07:14:04;;;;;;;37.42;13.77;;;;;;;;;;4979886;28;99189;-72
2023/12/12 07:16:31;;;;;;;47.60;13.90;;;;;;;;;;4979906;28;99877;-71
2023/12/12 07:18:58;;;;;;;43.90;13.75;;;;;;;;;;4988078;28;99097;-73
2023/12/12 07:21:24;;;;;;;55.13;14.70;;;;;;;;;;4985874;28;100064;-72
2023/12/12 07:23:51;;;;;;;45.42;13.43;;;;;;;;;;4982948;28;98232;-71
2023/12/12 07:26:21;;;;;;;31.77;12.38;;;;;;;;;;4971691;28;99850;-74
2023/12/12 07:28:47;;;;;;;37.13;13.60;;;;;;;;;;4969574;28;99824;-72
2023/12/12 07:31:16;;;;;;;34.40;13.43;;;;;;;;;;4963937;28;99074;-71
2023/12/12 07:33:42;;;;;;;44.38;12.98;;;;;;;;;;4967655;28;99552;-72
2023/12/12 07:36:09;;;;;;;37.92;13.02;;;;;;;;;;4977489;28;99972;-73
2023/12/12 07:38:35;;;;;;;57.42;13.15;;;;;;;;;;4974988;28;98335;-73
2023/12/12 07:41:02;;;;;;;39.05;13.23;;;;;;;;;;4965608;28;99934;-73
2023/12/12 07:43:29;;;;;;;40.05;12.75;;;;;;;;;;4966555;28;98854;-72
2023/12/12 07:45:55;;;;;;;35.97;14.57;;;;;;;;;;4967943;28;98951;-73
2023/12/12 07:48:22;;;;;;;41.72;12.82;;;;;;;;;;4968882;28;100363;-73
2023/12/12 07:50:49;;;;;;;44.08;12.93;;;;;;;;;;4971631;28;98297;-72
2023/12/12 07:53:15;;;;;;;44.60;12.98;;;;;;;;;;4971166;28;98589;-72
2023/12/12 07:55:42;;;;;;;34.65;11.93;;;;;;;;;;4971050;28;99884;-72
2023/12/12 07:58:08;;;;;;;31.10;11.85;;;;;;;;;;4971502;28;98800;-73
2023/12/12 08:00:35;;;;;;;26.95;11.07;;;;;;;;;;4974406;28;98732;-72
2023/12/12 08:03:03;;;;;;;36.25;12.25;;;;;;;;;;4971372;28;98179;-73
2023/12/12 08:05:30;;;;;;;22.98;10.52;;;;;;;;;;4971311;28;100067;-74
2023/12/12 08:07:56;;;;;;;22.88;11.05;;;;;;;;;;4970402;28;99867;-73
2023/12/12 08:10:23;;;;;;;27.05;11.48;;;;;;;;;;4970867;28;98282;-72
2023/12/12 08:12:49;;;;;;;24.70;10.68;;;;;;;;;;4971687;28;98528;-73
2023/12/12 08:15:16;;;;;;;24.88;10.43;;;;;;;;;;4969933;28;99013;-72
2023/12/12 08:17:42;;;;;;;22.67;10.98;;;;;;;;;;4971172;28;98314;-73
2023/12/12 08:20:10;;;;;;;23.27;10.68;;;;;;;;;;4970852;28;99450;-71
2023/12/12 08:22:37;;;;;;;31.17;11.02;;;;;;;;;;4972719;28;99648;-72
2023/12/12 08:25:05;;;;;;;36.00;10.52;;;;;;;;;;4971165;28;99706;-72
2023/12/12 08:27:32;;;;;;;24.27;10.55;;;;;;;;;;4970463;28;98874;-72
2023/12/12 08:30:01;;;;;;;31.00;10.98;;;;;;;;;;4969579;28;98757;-72
2023/12/12 08:32:27;;;;;;;25.20;10.95;;;;;;;;;;4970745;28;99442;-73
2023/12/12 08:34:54;;;;;;;30.35;11.32;;;;;;;;;;4969970;28;99422;-73
2023/12/12 08:37:20;;;;;;;35.00;11.75;;;;;;;;;;4970454;28;98255;-73
2023/12/12 08:39:47;;;;;;;18.48;11.60;;;;;;;;;;4970601;28;99377;-72
2023/12/12 08:42:14;;;;;;;32.35;11.93;;;;;;;;;;4972880;28;99248;-73
2023/12/12 08:44:41;;;;;;;30.70;13.15;;;;;;;;;;4970724;28;98773;-73
2023/12/12 08:47:07;;;;;;;28.85;12.60;;;;;;;;;;4969931;28;100018;-74
2023/12/12 08:49:37;;;;;;;31.00;11.68;;;;;;;;;;4970245;28;98624;-73
2023/12/12 08:52:07;;;;;;;40.88;12.40;;;;;;;;;;4960403;28;99179;-73
2023/12/12 08:54:36;;;;;;;38.15;14.35;;;;;;;;;;4967018;28;101046;-73
2023/12/12 08:57:03;;;;;;;36.08;13.75;;;;;;;;;;4969148;28;98317;-73
2023/12/12 08:59:29;;;;;;;40.47;13.85;;;;;;;;;;4970327;28;100214;-73
2023/12/12 09:01:55;;;;;;;39.60;14.43;;;;;;;;;;4969973;28;100030;-74
2023/12/12 09:04:22;;;;;;;31.75;13.85;;;;;;;;;;4972193;28;98343;-72
2023/12/12 09:06:49;;;;;;;46.00;14.18;;;;;;;;;;4970035;28;99870;-72
2023/12/12 09:09:15;;;;;;;25.75;11.93;;;;;;;;;;4966270;28;99005;-73
2023/12/12 09:11:44;;;;;;;46.95;14.38;;;;;;;;;;4965118;28;99852;-73
2023/12/12 09:14:10;;;;;;;35.13;13.82;;;;;;;;;;4964923;28;99661;-73
2023/12/12 09:16:37;;;;;;;56.33;13.88;;;;;;;;;;4960731;28;99872;-73
2023/12/12 09:19:04;;;;;;;43.88;12.82;;;;;;;;;;4958448;28;100118;-73
2023/12/12 09:21:30;;;;;;;41.65;13.15;;;;;;;;;;4976391;28;99128;-73
2023/12/12 09:23:57;;;;;;;48.85;12.57;;;;;;;;;;4967880;28;99366;-75
2023/12/12 09:26:23;;;;;;;27.42;11.85;;;;;;;;;;4970208;28;99734;-74
2023/12/12 09:28:50;;;;;;;39.03;13.32;;;;;;;;;;4963799;28;100168;-74
2023/12/12 09:31:23;;;;;;;26.88;10.38;;;;;;;;;;4964269;28;99540;-73
2023/12/12 09:33:50;;;;;;;28.85;10.90;;;;;;;;;;4963863;28;100147;-74
2023/12/12 09:36:16;;;;;;;30.80;11.05;;;;;;;;;;4971067;28;98016;-74
2023/12/12 09:38:44;;;;;;;35.70;10.73;;;;;;;;;;4969998;28;99445;-76
2023/12/12 09:41:17;;;;;;;34.95;10.02;;;;;;;;;;4968364;28;100030;-75
2023/12/12 09:43:47;;;;;;;34.30;9.45;;;;;;;;;;4969153;28;99007;-76
2023/12/12 09:46:14;;;;;;;26.60;9.45;;;;;;;;;;4968199;28;99553;-73
2023/12/12 09:48:42;;;;;;;36.50;9.07;;;;;;;;;;4970108;28;100085;-74
2023/12/12 09:51:09;;;;;;;32.25;8.90;;;;;;;;;;4966115;28;100034;-74
2023/12/12 09:53:36;;;;;;;28.05;8.38;;;;;;;;;;4968359;28;100088;-74
2023/12/12 09:56:03;;;;;;;31.65;8.73;;;;;;;;;;4968904;28;98278;-74
2023/12/12 09:58:29;;;;;;;37.25;7.93;;;;;;;;;;4970305;28;98616;-74
2023/12/12 10:00:58;;;;;;;25.23;8.50;;;;;;;;;;4967727;28;100032;-74
2023/12/12 10:03:25;;;;;;;33.67;8.93;;;;;;;;;;4963790;28;100183;-72
2023/12/12 10:05:52;;;;;;;28.95;8.02;;;;;;;;;;4959991;28;99399;-72
2023/12/12 10:08:19;;;;;;;46.65;9.18;;;;;;;;;;4957464;28;99562;-74
2023/12/12 10:10:46;;;;;;;25.45;7.07;;;;;;;;;;4965861;28;98216;-73
2023/12/12 10:13:12;;;;;;;32.08;8.13;;;;;;;;;;4969447;28;100152;-75
2023/12/12 10:15:39;;;;;;;32.30;8.05;;;;;;;;;;4969958;28;98854;-74
2023/12/12 10:18:05;;;;;;;26.08;7.13;;;;;;;;;;4969628;28;99647;-74
2023/12/12 10:20:35;;;;;;;18.98;6.38;;;;;;;;;;4963803;28;99966;-73
2023/12/12 10:23:04;;;;;;;24.05;7.07;;;;;;;;;;4957122;28;98303;-73
2023/12/12 10:25:34;;;;;;;22.88;7.57;;;;;;;;;;4966976;28;98658;-74
2023/12/12 10:28:01;;;;;;;35.58;9.35;;;;;;;;;;4962487;28;99524;-74
2023/12/12 10:30:30;;;;;;;28.10;7.68;;;;;;;;;;4969959;28;98201;-74
2023/12/12 10:32:57;;;;;;;27.80;7.85;;;;;;;;;;4963302;28;98476;-74
2023/12/12 10:35:25;;;;;;;29.38;7.70;;;;;;;;;;4949377;28;99643;-73
2023/12/12 10:37:52;;;;;;;24.67;8.68;;;;;;;;;;4950210;28;99509;-74
2023/12/12 10:40:21;;;;;;;22.35;7.07;;;;;;;;;;4949605;28;100031;-74
2023/12/12 10:42:51;;;;;;;30.27;8.35;;;;;;;;;;4968905;28;98272;-74
2023/12/12 10:45:18;;;;;;;21.38;7.40;;;;;;;;;;4969739;28;99623;-74
2023/12/12 10:47:45;;;;;;;30.52;6.25;;;;;;;;;;4969469;28;99441;-74
2023/12/12 10:50:13;;;;;;;28.33;7.28;;;;;;;;;;4967673;28;98176;-74
2023/12/12 10:52:41;;;;;;;19.10;7.07;;;;;;;;;;4976287;28;99670;-73
2023/12/12 10:55:09;;;;;;;13.70;6.22;;;;;;;;;;4968511;28;98366;-74
2023/12/12 10:57:37;;;;;;;30.13;7.55;;;;;;;;;;4969342;28;98784;-74
2023/12/12 11:00:11;;;;;;;36.17;8.15;;;;;;;;;;4967961;28;99937;-74
2023/12/12 11:02:44;;;;;;;20.83;7.50;;;;;;;;;;4970286;28;98390;-75
2023/12/12 11:05:11;;;;;;;27.95;7.18;;;;;;;;;;4953943;28;98328;-73
2023/12/12 11:07:39;;;;;;;24.42;6.53;;;;;;;;;;4957809;28;99977;-73
2023/12/12 11:10:06;;;;;;;31.38;8.40;;;;;;;;;;4973919;28;98889;-74
2023/12/12 11:12:34;;;;;;;19.05;6.45;;;;;;;;;;4970928;28;99394;-74
2023/12/12 11:15:04;;;;;;;21.90;7.25;;;;;;;;;;4969672;28;99103;-76
2023/12/12 11:17:32;;;;;;;27.73;6.13;;;;;;;;;;4967850;28;100217;-75
2023/12/12 11:20:08;;;;;;;23.67;7.97;;;;;;;;;;4965843;28;99009;-73
2023/12/12 11:22:41;;;;;;;20.67;6.78;;;;;;;;;;4969087;28;99633;-73
2023/12/12 11:25:13;;;;;;;21.33;6.47;;;;;;;;;;4969174;28;99662;-73
2023/12/12 11:27:40;;;;;;;21.05;6.60;;;;;;;;;;4972896;28;100147;-74
2023/12/12 11:30:07;;;;;;;20.27;6.82;;;;;;;;;;4972003;28;98259;-74
2023/12/12 11:32:34;;;;;;;17.45;6.00;;;;;;;;;;4973705;28;99318;-74
2023/12/12 11:35:08;;;;;;;16.20;5.55;;;;;;;;;;4969165;28;101763;-72
2023/12/12 11:37:39;;;;;;;16.40;5.60;;;;;;;;;;4974348;28;98501;-73
2023/12/12 11:40:06;;;;;;;21.05;6.63;;;;;;;;;;4976542;28;100002;-73
2023/12/12 11:42:32;;;;;;;24.40;5.55;;;;;;;;;;4962989;28;98297;-74
2023/12/12 11:44:59;;;;;;;26.70;6.22;;;;;;;;;;4962695;28;99740;-73
2023/12/12 11:47:26;;;;;;;24.15;6.57;;;;;;;;;;4962569;28;100345;-73
2023/12/12 11:50:12;;;;;;;27.55;6.70;;;;;;;;;;4963646;28;99678;-73
2023/12/12 11:52:38;;;;;;;19.88;6.18;;;;;;;;;;4965288;28;99620;-72
2023/12/12 11:55:05;;;;;;;24.60;5.82;;;;;;;;;;4959989;28;100318;-73
2023/12/12 11:57:32;;;;;;;14.48;6.20;;;;;;;;;;4962783;28;99302;-72
2023/12/12 12:00:02;;;;;;;15.77;5.22;;;;;;;;;;4972624;28;98602;-73
2023/12/12 12:02:30;;;;;;;24.77;6.55;;;;;;;;;;4968781;28;98304;-73
2023/12/12 12:04:57;;;;;;;29.20;6.28;;;;;;;;;;4962923;28;98652;-73
2023/12/12 12:07:24;;;;;;;18.90;6.68;;;;;;;;;;4962493;28;100221;-73
2023/12/12 12:09:52;;;;;;;17.17;5.13;;;;;;;;;;4964861;28;100346;-73
2023/12/12 12:12:19;;;;;;;13.93;6.28;;;;;;;;;;4969675;28;99679;-73
2023/12/12 12:14:46;;;;;;;10.93;5.53;;;;;;;;;;4965540;28;100188;-72
2023/12/12 12:17:12;;;;;;;20.63;6.15;;;;;;;;;;4965136;28;98585;-73
2023/12/12 12:19:39;;;;;;;19.33;6.30;;;;;;;;;;4966757;28;99710;-72
2023/12/12 12:22:10;;;;;;;18.35;5.25;;;;;;;;;;4971224;28;100096;-73
2023/12/12 12:24:41;;;;;;;21.73;5.32;;;;;;;;;;4969047;28;99699;-72
2023/12/12 12:27:07;;;;;;;17.55;5.25;;;;;;;;;;4967333;28;99810;-73
2023/12/12 12:29:34;;;;;;;16.83;5.53;;;;;;;;;;4986887;28;98364;-74
2023/12/12 12:32:10;;;;;;;18.30;5.40;;;;;;;;;;4984691;28;99458;-72
2023/12/12 12:34:36;;;;;;;18.23;5.05;;;;;;;;;;4965341;28;100181;-72
2023/12/12 12:37:03;;;;;;;11.35;5.07;;;;;;;;;;4981853;28;98674;-73
2023/12/12 12:39:40;;;;;;;16.77;5.63;;;;;;;;;;4964689;28;99287;-73
2023/12/12 12:42:06;;;;;;;16.08;5.05;;;;;;;;;;4960060;28;99948;-73
2023/12/12 12:44:33;;;;;;;18.90;5.85;;;;;;;;;;4964551;28;100221;-73
2023/12/12 12:46:59;;;;;;;12.57;5.10;;;;;;;;;;4962908;28;99242;-72
2023/12/12 12:49:26;;;;;;;13.65;5.75;;;;;;;;;;4968166;28;102076;-72
2023/12/12 12:51:52;;;;;;;16.17;5.53;;;;;;;;;;4968977;28;99580;-74
2023/12/12 12:54:19;;;;;;;12.80;5.38;;;;;;;;;;4964501;28;100934;-73
2023/12/12 12:56:49;;;;;;;23.20;5.88;;;;;;;;;;4964434;28;98608;-73
2023/12/12 12:59:18;;;;;;;22.48;5.60;;;;;;;;;;4964891;28;99379;-73
2023/12/12 13:01:45;;;;;;;14.43;4.90;;;;;;;;;;4967796;28;100554;-73
2023/12/12 13:04:12;;;;;;;15.75;5.78;;;;;;;;;;4971486;28;99553;-73
2023/12/12 13:06:39;;;;;;;13.73;5.03;;;;;;;;;;4968894;28;99250;-74
2023/12/12 13:09:09;;;;;;;22.45;5.45;;;;;;;;;;4986734;28;98374;-72
2023/12/12 13:11:38;;;;;;;15.77;6.00;;;;;;;;;;4960581;28;99391;-72
2023/12/12 13:14:05;;;;;;;18.15;5.47;;;;;;;;;;4953235;28;99888;-73
2023/12/12 13:16:32;;;;;;;19.38;5.45;;;;;;;;;;4968042;28;99130;-73
2023/12/12 13:18:58;;;;;;;19.90;5.03;;;;;;;;;;4968833;28;99872;-74
2023/12/12 13:21:25;;;;;;;22.85;6.70;;;;;;;;;;4968094;28;100101;-74
2023/12/12 13:23:52;;;;;;;13.80;6.53;;;;;;;;;;4967986;28;98319;-73
2023/12/12 13:26:18;;;;;;;14.93;6.15;;;;;;;;;;4971857;28;98693;-74
2023/12/12 13:28:47;;;;;;;20.25;6.07;;;;;;;;;;4956677;28;98266;-73
2023/12/12 13:31:14;;;;;;;15.27;6.38;;;;;;;;;;4954169;28;99521;-74
2023/12/12 13:33:40;;;;;;;14.80;5.22;;;;;;;;;;4967596;28;100056;-72
2023/12/12 13:36:07;;;;;;;16.35;5.65;;;;;;;;;;4968211;28;98223;-74
2023/12/12 13:38:33;;;;;;;13.55;5.70;;;;;;;;;;4967686;28;98573;-73
2023/12/12 13:41:00;;;;;;;25.88;7.38;;;;;;;;;;4968236;28;99139;-73
2023/12/12 13:43:26;;;;;;;7.95;4.32;;;;;;;;;;4959200;28;98568;-73
2023/12/12 13:45:53;;;;;;;8.77;4.40;;;;;;;;;;4949304;28;99260;-72
2023/12/12 13:48:19;;;;;;;12.27;5.25;;;;;;;;;;4956248;28;99893;-73
2023/12/12 13:50:46;;;;;;;8.50;4.53;;;;;;;;;;4948763;28;99367;-72
2023/12/12 13:53:12;;;;;;;10.55;4.55;;;;;;;;;;4947444;28;99214;-72
2023/12/12 13:55:39;;;;;;;8.90;4.55;;;;;;;;;;4949164;28;99339;-73
2023/12/12 13:58:06;;;;;;;9.32;4.60;;;;;;;;;;4947682;28;99430;-74
2023/12/12 14:00:32;;;;;;;5.75;4.28;;;;;;;;;;4974350;28;99094;-74
2023/12/12 14:02:59;;;;;;;15.95;5.07;;;;;;;;;;4988121;28;98513;-74
2023/12/12 14:05:26;;;;;;;14.73;4.68;;;;;;;;;;4978956;28;100176;-73
2023/12/12 14:07:55;;;;;;;12.07;3.85;;;;;;;;;;4976398;28;99763;-73
2023/12/12 14:10:22;;;;;;;10.20;4.38;;;;;;;;;;4989752;28;98698;-72
2023/12/12 14:12:49;;;;;;;12.68;4.50;;;;;;;;;;4968343;28;99315;-74
2023/12/12 14:15:16;;;;;;;16.35;4.13;;;;;;;;;;4978791;28;98235;-75
2023/12/12 14:17:42;;;;;;;8.70;4.28;;;;;;;;;;4973000;28;99725;-74
2023/12/12 14:20:09;;;;;;;7.68;4.85;;;;;;;;;;4966519;28;100273;-74
2023/12/12 14:22:36;;;;;;;8.48;4.68;;;;;;;;;;4963902;28;98330;-74